sensor_id;sensor_type;location;lat;lon;timestamp;pressure;altitude;pressure_sealevel;temperature;humidity
58775;BME280;44545;47.480;19.024;2023-11-22T04:22:58;100086.47;;;3.53;100.00
58775;BME280;44545;47.480;19.024;2023-11-22T04:26:01;100088.84;;;3.62;100.00
58775;BME280;44545;47.480;19.024;2023-11-22T04:29:03;100097.38;;;3.61;100.00
58775;BME280;44545;47.480;19.024;2023-11-22T04:32:06;100096.56;;;3.62;100.00
58775;BME280;44545;47.480;19.024;2023-11-22T04:35:10;100098.31;;;3.73;100.00
58775;BME280;44545;47.480;19.024;2023-11-22T04:38:12;100084.53;;;3.73;100.00
58775;BME280;44545;47.480;19.024;2023-11-22T04:41:15;100093.59;;;3.67;100.00
58775;BME280;44545;47.480;19.024;2023-11-22T04:44:18;100092.53;;;3.87;100.00
58775;BME280;44545;47.480;19.024;2023-11-22T04:47:20;100094.84;;;3.84;100.00
58775;BME280;44545;47.480;19.024;2023-11-22T04:50:24;100098.41;;;3.75;100.00
58775;BME280;44545;47.480;19.024;2023-11-22T04:53:26;100103.34;;;3.72;100.00
58775;BME280;44545;47.480;19.024;2023-11-22T04:56:29;100104.72;;;3.78;100.00
58775;BME280;44545;47.480;19.024;2023-11-22T04:59:32;100109.44;;;3.84;100.00
58775;BME280;44545;47.480;19.024;2023-11-22T05:02:35;100105.06;;;3.83;100.00
58775;BME280;44545;47.480;19.024;2023-11-22T05:05:37;100113.75;;;3.95;100.00
58775;BME280;44545;47.480;19.024;2023-11-22T05:08:40;100106.31;;;3.88;100.00
58775;BME280;44545;47.480;19.024;2023-11-22T05:11:42;100121.06;;;3.79;100.00
58775;BME280;44545;47.480;19.024;2023-11-22T05:14:45;100118.72;;;3.70;100.00
58775;BME280;44545;47.480;19.024;2023-11-22T05:17:47;100124.53;;;3.67;100.00
58775;BME280;44545;47.480;19.024;2023-11-22T05:20:50;100135.13;;;3.82;100.00
58775;BME280;44545;47.480;19.024;2023-11-22T05:23:52;100131.87;;;3.85;100.00
58775;BME280;44545;47.480;19.024;2023-11-22T05:26:56;100138.16;;;3.88;100.00
58775;BME280;44545;47.480;19.024;2023-11-22T05:29:58;100139.13;;;3.79;100.00
58775;BME280;44545;47.480;19.024;2023-11-22T05:33:03;100147.41;;;3.75;100.00
58775;BME280;44545;47.480;19.024;2023-11-22T05:36:06;100145.16;;;3.45;100.00
58775;BME280;44545;47.480;19.024;2023-11-22T05:39:09;100154.06;;;3.17;100.00
58775;BME280;44545;47.480;19.024;2023-11-22T05:42:11;100158.34;;;3.06;100.00
58775;BME280;44545;47.480;19.024;2023-11-22T05:45:14;100166.88;;;3.05;100.00
58775;BME280;44545;47.480;19.024;2023-11-22T05:48:16;100176.66;;;3.09;100.00
58775;BME280;44545;47.480;19.024;2023-11-22T05:51:19;100180.41;;;3.02;100.00
58775;BME280;44545;47.480;19.024;2023-11-22T05:54:22;100180.44;;;2.92;100.00
58775;BME280;44545;47.480;19.024;2023-11-22T05:57:25;100192.69;;;2.85;100.00
58775;BME280;44545;47.480;19.024;2023-11-22T06:00:27;100187.41;;;2.83;100.00
58775;BME280;44545;47.480;19.024;2023-11-22T06:03:29;100201.44;;;2.87;100.00
58775;BME280;44545;47.480;19.024;2023-11-22T06:06:31;100195.78;;;2.80;100.00
58775;BME280;44545;47.480;19.024;2023-11-22T06:09:34;100200.28;;;2.73;100.00
58775;BME280;44545;47.480;19.024;2023-11-22T06:12:36;100204.28;;;2.79;100.00
58775;BME280;44545;47.480;19.024;2023-11-22T06:15:39;100208.41;;;2.67;100.00
58775;BME280;44545;47.480;19.024;2023-11-22T06:18:42;100222.59;;;2.52;100.00
58775;BME280;44545;47.480;19.024;2023-11-22T06:21:46;100212.69;;;2.67;100.00
58775;BME280;44545;47.480;19.024;2023-11-22T06:24:48;100223.22;;;2.70;100.00
58775;BME280;44545;47.480;19.024;2023-11-22T06:27:51;100223.87;;;2.67;100.00
58775;BME280;44545;47.480;19.024;2023-11-22T06:30:53;100239.44;;;2.79;100.00
58775;BME280;44545;47.480;19.024;2023-11-22T06:33:55;100238.50;;;2.99;100.00
58775;BME280;44545;47.480;19.024;2023-11-22T06:36:58;100247.19;;;3.11;100.00
58775;BME280;44545;47.480;19.024;2023-11-22T06:40:01;100264.25;;;2.99;100.00
58775;BME280;44545;47.480;19.024;2023-11-22T06:43:03;100268.09;;;3.14;100.00
58775;BME280;44545;47.480;19.024;2023-11-22T06:46:09;100265.94;;;3.41;100.00
58775;BME280;44545;47.480;19.024;2023-11-22T06:49:11;100272.16;;;3.65;100.00
58775;BME280;44545;47.480;19.024;2023-11-22T06:52:14;100275.41;;;3.84;100.00
58775;BME280;44545;47.480;19.024;2023-11-22T06:55:16;100276.56;;;3.88;100.00
58775;BME280;44545;47.480;19.024;2023-11-22T06:58:19;100278.22;;;3.65;100.00
58775;BME280;44545;47.480;19.024;2023-11-22T07:01:25;100276.47;;;3.76;100.00
58775;BME280;44545;47.480;19.024;2023-11-22T07:04:28;100282.75;;;3.80;100.00
58775;BME280;44545;47.480;19.024;2023-11-22T07:07:31;100286.31;;;3.70;100.00
58775;BME280;44545;47.480;19.024;2023-11-22T07:10:34;100301.13;;;3.73;100.00
58775;BME280;44545;47.480;19.024;2023-11-22T07:13:36;100304.97;;;3.78;100.00
58775;BME280;44545;47.480;19.024;2023-11-22T07:16:41;100308.88;;;3.95;100.00
58775;BME280;44545;47.480;19.024;2023-11-22T07:19:44;100316.91;;;4.09;100.00
58775;BME280;44545;47.480;19.024;2023-11-22T07:22:49;100317.34;;;4.26;100.00
58775;BME280;44545;47.480;19.024;2023-11-22T07:25:57;100317.53;;;4.39;100.00
58775;BME280;44545;47.480;19.024;2023-11-22T07:29:02;100314.06;;;4.39;100.00
58775;BME280;44545;47.480;19.024;2023-11-22T07:32:04;100321.28;;;4.54;100.00
58775;BME280;44545;47.480;19.024;2023-11-22T07:35:09;100319.28;;;4.62;100.00
58775;BME280;44545;47.480;19.024;2023-11-22T07:38:12;100318.47;;;4.51;100.00
58775;BME280;44545;47.480;19.024;2023-11-22T07:41:14;100322.66;;;4.61;100.00
58775;BME280;44545;47.480;19.024;2023-11-22T07:44:17;100308.91;;;4.84;100.00
58775;BME280;44545;47.480;19.024;2023-11-22T07:47:20;100312.06;;;5.04;100.00
58775;BME280;44545;47.480;19.024;2023-11-22T07:50:22;100315.63;;;5.39;100.00
58775;BME280;44545;47.480;19.024;2023-11-22T07:53:26;100315.00;;;5.79;100.00
58775;BME280;44545;47.480;19.024;2023-11-22T07:56:31;100322.66;;;6.01;100.00
58775;BME280;44545;47.480;19.024;2023-11-22T07:59:35;100334.47;;;5.97;100.00
58775;BME280;44545;47.480;19.024;2023-11-22T08:02:39;100332.44;;;6.05;100.00
58775;BME280;44545;47.480;19.024;2023-11-22T08:05:41;100332.44;;;6.05;100.00
58775;BME280;44545;47.480;19.024;2023-11-22T08:08:44;100332.75;;;6.21;100.00
58775;BME280;44545;47.480;19.024;2023-11-22T08:11:49;100342.25;;;6.46;100.00
58775;BME280;44545;47.480;19.024;2023-11-22T08:14:51;100353.50;;;6.71;100.00
58775;BME280;44545;47.480;19.024;2023-11-22T08:17:58;100360.41;;;6.59;100.00
58775;BME280;44545;47.480;19.024;2023-11-22T08:21:02;100366.47;;;6.71;100.00
58775;BME280;44545;47.480;19.024;2023-11-22T08:24:06;100363.22;;;6.87;100.00
58775;BME280;44545;47.480;19.024;2023-11-22T08:27:08;100378.09;;;6.90;100.00
58775;BME280;44545;47.480;19.024;2023-11-22T08:30:11;100367.84;;;6.91;100.00
58775;BME280;44545;47.480;19.024;2023-11-22T08:33:18;100370.81;;;6.98;100.00
58775;BME280;44545;47.480;19.024;2023-11-22T08:36:21;100381.72;;;6.80;100.00
58775;BME280;44545;47.480;19.024;2023-11-22T08:39:23;100383.78;;;6.72;100.00
58775;BME280;44545;47.480;19.024;2023-11-22T08:42:26;100384.66;;;6.85;100.00
58775;BME280;44545;47.480;19.024;2023-11-22T08:45:28;100377.22;;;7.03;100.00
58775;BME280;44545;47.480;19.024;2023-11-22T08:48:31;100383.94;;;7.12;100.00
58775;BME280;44545;47.480;19.024;2023-11-22T08:51:34;100384.59;;;6.97;100.00
58775;BME280;44545;47.480;19.024;2023-11-22T08:54:36;100386.09;;;7.06;100.00
58775;BME280;44545;47.480;19.024;2023-11-22T08:57:39;100383.22;;;7.02;100.00
58775;BME280;44545;47.480;19.024;2023-11-22T09:00:43;100390.31;;;7.04;100.00
58775;BME280;44545;47.480;19.024;2023-11-22T09:03:47;100387.56;;;7.28;100.00
58775;BME280;44545;47.480;19.024;2023-11-22T09:06:49;100377.34;;;8.37;100.00
58775;BME280;44545;47.480;19.024;2023-11-22T09:09:52;100365.84;;;10.09;100.00
58775;BME280;44545;47.480;19.024;2023-11-22T09:12:55;100360.16;;;11.13;100.00
58775;BME280;44545;47.480;19.024;2023-11-22T09:15:57;100365.44;;;11.48;99.93
58775;BME280;44545;47.480;19.024;2023-11-22T09:18:59;100374.66;;;10.91;100.00
58775;BME280;44545;47.480;19.024;2023-11-22T09:22:04;100375.00;;;10.81;100.00
58775;BME280;44545;47.480;19.024;2023-11-22T09:25:08;100378.12;;;10.74;100.00
58775;BME280;44545;47.480;19.024;2023-11-22T09:28:19;100381.94;;;10.97;100.00
58775;BME280;44545;47.480;19.024;2023-11-22T09:31:22;100390.16;;;10.55;100.00
58775;BME280;44545;47.480;19.024;2023-11-22T09:34:24;100392.59;;;10.21;100.00
58775;BME280;44545;47.480;19.024;2023-11-22T09:37:27;100390.34;;;10.12;100.00
58775;BME280;44545;47.480;19.024;2023-11-22T09:40:30;100391.88;;;10.38;100.00
58775;BME280;44545;47.480;19.024;2023-11-22T09:43:34;100398.00;;;10.72;100.00
58775;BME280;44545;47.480;19.024;2023-11-22T09:46:37;100396.53;;;10.77;99.02
58775;BME280;44545;47.480;19.024;2023-11-22T09:49:40;100393.84;;;10.75;100.00
58775;BME280;44545;47.480;19.024;2023-11-22T09:52:43;100410.22;;;11.05;99.09
58775;BME280;44545;47.480;19.024;2023-11-22T09:55:48;100406.53;;;10.53;100.00
58775;BME280;44545;47.480;19.024;2023-11-22T09:58:55;100412.19;;;10.14;100.00
58775;BME280;44545;47.480;19.024;2023-11-22T10:01:59;100411.19;;;9.66;100.00
58775;BME280;44545;47.480;19.024;2023-11-22T10:05:03;100410.84;;;9.60;100.00
58775;BME280;44545;47.480;19.024;2023-11-22T10:08:05;100403.19;;;9.78;100.00
58775;BME280;44545;47.480;19.024;2023-11-22T10:11:08;100408.66;;;9.83;100.00
58775;BME280;44545;47.480;19.024;2023-11-22T10:14:10;100412.78;;;9.94;100.00
58775;BME280;44545;47.480;19.024;2023-11-22T10:17:13;100410.91;;;10.23;100.00
58775;BME280;44545;47.480;19.024;2023-11-22T10:20:23;100422.44;;;10.11;100.00
58775;BME280;44545;47.480;19.024;2023-11-22T10:23:40;100414.34;;;10.22;100.00
58775;BME280;44545;47.480;19.024;2023-11-22T10:26:42;100416.84;;;10.35;100.00
58775;BME280;44545;47.480;19.024;2023-11-22T10:29:44;100430.69;;;10.98;99.46
58775;BME280;44545;47.480;19.024;2023-11-22T10:32:49;100438.06;;;11.56;93.09
58775;BME280;44545;47.480;19.024;2023-11-22T10:35:52;100439.12;;;11.93;89.78
58775;BME280;44545;47.480;19.024;2023-11-22T10:38:57;100442.59;;;12.48;86.92
58775;BME280;44545;47.480;19.024;2023-11-22T10:42:05;100438.91;;;12.99;84.55
58775;BME280;44545;47.480;19.024;2023-11-22T10:45:10;100491.19;;;14.18;76.08
58775;BME280;44545;47.480;19.024;2023-11-22T10:48:16;100484.06;;;14.14;71.64
58775;BME280;44545;47.480;19.024;2023-11-22T10:51:20;100502.06;;;15.38;68.25
58775;BME280;44545;47.480;19.024;2023-11-22T10:54:26;100505.28;;;15.31;66.54
58775;BME280;44545;47.480;19.024;2023-11-22T10:57:32;100550.16;;;16.60;61.28
58775;BME280;44545;47.480;19.024;2023-11-22T11:00:35;100579.75;;;17.36;57.03
58775;BME280;44545;47.480;19.024;2023-11-22T11:03:41;100607.69;;;17.88;53.81
58775;BME280;44545;47.480;19.024;2023-11-22T11:06:53;100670.75;;;19.09;48.93
58775;BME280;44545;47.480;19.024;2023-11-22T11:09:57;100721.09;;;19.88;45.48
58775;BME280;44545;47.480;19.024;2023-11-22T11:13:14;100738.13;;;20.02;44.55
58775;BME280;44545;47.480;19.024;2023-11-22T11:16:17;100855.91;;;22.64;39.27
58775;BME280;44545;47.480;19.024;2023-11-22T11:19:20;100947.56;;;24.82;34.64
58775;BME280;44545;47.480;19.024;2023-11-22T11:22:27;100928.50;;;24.28;34.16
58775;BME280;44545;47.480;19.024;2023-11-22T11:25:31;101141.53;;;28.68;27.35
58775;BME280;44545;47.480;19.024;2023-11-22T11:28:43;101135.88;;;29.01;26.40
58775;BME280;44545;47.480;19.024;2023-11-22T11:31:50;101233.59;;;31.12;23.69
58775;BME280;44545;47.480;19.024;2023-11-22T11:34:52;101307.75;;;31.87;21.46
58775;BME280;44545;47.480;19.024;2023-11-22T11:37:59;101324.16;;;33.07;20.17
58775;BME280;44545;47.480;19.024;2023-11-22T11:41:09;101361.63;;;34.59;18.82
58775;BME280;44545;47.480;19.024;2023-11-22T11:44:12;101329.03;;;33.65;19.19
58775;BME280;44545;47.480;19.024;2023-11-22T11:47:15;101251.16;;;31.84;20.83
58775;BME280;44545;47.480;19.024;2023-11-22T11:50:20;101262.00;;;31.33;20.49
58775;BME280;44545;47.480;19.024;2023-11-22T11:53:24;101105.91;;;28.49;23.67
58775;BME280;44545;47.480;19.024;2023-11-22T11:56:27;101019.06;;;27.06;25.24
58775;BME280;44545;47.480;19.024;2023-11-22T11:59:33;100858.66;;;23.54;29.58
58775;BME280;44545;47.480;19.024;2023-11-22T12:02:36;100614.91;;;19.33;37.75
58775;BME280;44545;47.480;19.024;2023-11-22T12:05:39;100373.28;;;14.64;47.83
58775;BME280;44545;47.480;19.024;2023-11-22T12:08:41;100271.75;;;12.88;57.38
58775;BME280;44545;47.480;19.024;2023-11-22T12:11:44;100417.72;;;11.84;66.14
58775;BME280;44545;47.480;19.024;2023-11-22T12:14:49;100511.25;;;11.08;74.35
58775;BME280;44545;47.480;19.024;2023-11-22T12:17:52;100519.91;;;10.76;81.00
58775;BME280;44545;47.480;19.024;2023-11-22T12:20:58;100529.16;;;10.25;85.71
58775;BME280;44545;47.480;19.024;2023-11-22T12:24:01;100535.22;;;10.09;88.23
58775;BME280;44545;47.480;19.024;2023-11-22T12:27:05;100538.41;;;9.90;92.46
58775;BME280;44545;47.480;19.024;2023-11-22T12:30:32;100547.88;;;10.17;92.27
58775;BME280;44545;47.480;19.024;2023-11-22T12:33:35;100543.56;;;9.88;92.21
58775;BME280;44545;47.480;19.024;2023-11-22T12:36:40;100551.38;;;9.45;94.77
58775;BME280;44545;47.480;19.024;2023-11-22T12:39:42;100552.75;;;9.53;96.54
58775;BME280;44545;47.480;19.024;2023-11-22T12:42:47;100560.09;;;9.46;97.46
58775;BME280;44545;47.480;19.024;2023-11-22T12:45:59;100567.78;;;9.44;98.83
58775;BME280;44545;47.480;19.024;2023-11-22T12:49:05;100571.19;;;9.43;100.00
58775;BME280;44545;47.480;19.024;2023-11-22T12:52:08;100584.44;;;9.05;100.00
58775;BME280;44545;47.480;19.024;2023-11-22T12:55:11;100582.31;;;9.13;100.00
58775;BME280;44545;47.480;19.024;2023-11-22T12:58:32;100585.56;;;9.23;100.00
58775;BME280;44545;47.480;19.024;2023-11-22T13:01:35;100586.44;;;9.09;100.00
58775;BME280;44545;47.480;19.024;2023-11-22T13:04:37;100582.72;;;9.05;100.00
58775;BME280;44545;47.480;19.024;2023-11-22T13:07:40;100590.84;;;8.97;100.00
58775;BME280;44545;47.480;19.024;2023-11-22T13:10:46;100607.75;;;8.90;100.00
58775;BME280;44545;47.480;19.024;2023-11-22T13:13:51;100608.28;;;8.71;100.00
58775;BME280;44545;47.480;19.024;2023-11-22T13:16:53;100611.84;;;8.60;100.00
58775;BME280;44545;47.480;19.024;2023-11-22T13:19:58;100611.47;;;8.54;100.00
58775;BME280;44545;47.480;19.024;2023-11-22T13:23:02;100602.63;;;8.38;100.00
58775;BME280;44545;47.480;19.024;2023-11-22T13:26:05;100603.25;;;8.48;100.00
58775;BME280;44545;47.480;19.024;2023-11-22T13:29:07;100607.09;;;8.28;100.00
58775;BME280;44545;47.480;19.024;2023-11-22T13:32:10;100602.56;;;8.12;100.00
58775;BME280;44545;47.480;19.024;2023-11-22T13:35:14;100600.09;;;8.13;100.00
58775;BME280;44545;47.480;19.024;2023-11-22T13:38:20;100585.75;;;7.93;100.00
58775;BME280;44545;47.480;19.024;2023-11-22T13:41:22;100585.47;;;7.77;100.00
58775;BME280;44545;47.480;19.024;2023-11-22T13:44:27;100590.69;;;7.77;100.00
58775;BME280;44545;47.480;19.024;2023-11-22T13:47:29;100596.03;;;7.67;100.00
58775;BME280;44545;47.480;19.024;2023-11-22T13:50:32;100614.31;;;7.68;100.00
58775;BME280;44545;47.480;19.024;2023-11-22T13:53:35;100620.34;;;7.55;100.00
58775;BME280;44545;47.480;19.024;2023-11-22T13:56:40;100615.19;;;7.44;100.00
58775;BME280;44545;47.480;19.024;2023-11-22T13:59:42;100617.09;;;7.46;100.00
58775;BME280;44545;47.480;19.024;2023-11-22T14:02:46;100636.69;;;7.29;100.00
58775;BME280;44545;47.480;19.024;2023-11-22T14:05:49;100638.47;;;7.30;100.00
58775;BME280;44545;47.480;19.024;2023-11-22T14:08:51;100643.13;;;7.23;100.00
58775;BME280;44545;47.480;19.024;2023-11-22T14:11:54;100636.50;;;7.14;100.00
58775;BME280;44545;47.480;19.024;2023-11-22T14:14:58;100631.28;;;7.14;100.00
58775;BME280;44545;47.480;19.024;2023-11-22T14:18:01;100625.56;;;6.95;100.00
58775;BME280;44545;47.480;19.024;2023-11-22T14:21:04;100624.69;;;6.83;100.00
58775;BME280;44545;47.480;19.024;2023-11-22T14:24:07;100625.81;;;6.75;100.00
58775;BME280;44545;47.480;19.024;2023-11-22T14:27:13;100629.44;;;6.77;100.00
58775;BME280;44545;47.480;19.024;2023-11-22T14:30:15;100639.91;;;6.66;100.00
58775;BME280;44545;47.480;19.024;2023-11-22T14:33:19;100644.16;;;6.66;100.00
58775;BME280;44545;47.480;19.024;2023-11-22T14:36:23;100652.12;;;6.45;100.00
58775;BME280;44545;47.480;19.024;2023-11-22T14:39:25;100659.25;;;6.48;100.00
58775;BME280;44545;47.480;19.024;2023-11-22T14:42:29;100678.03;;;6.34;100.00
58775;BME280;44545;47.480;19.024;2023-11-22T14:45:32;100676.03;;;6.41;100.00
58775;BME280;44545;47.480;19.024;2023-11-22T14:48:35;100683.41;;;6.25;100.00
58775;BME280;44545;47.480;19.024;2023-11-22T14:51:37;100686.97;;;6.15;100.00
58775;BME280;44545;47.480;19.024;2023-11-22T14:54:40;100685.19;;;6.14;100.00
58775;BME280;44545;47.480;19.024;2023-11-22T14:57:44;100688.81;;;6.16;100.00
58775;BME280;44545;47.480;19.024;2023-11-22T15:00:46;100699.88;;;6.25;100.00
58775;BME280;44545;47.480;19.024;2023-11-22T15:03:49;100694.72;;;6.03;100.00
58775;BME280;44545;47.480;19.024;2023-11-22T15:06:51;100686.84;;;6.02;100.00
58775;BME280;44545;47.480;19.024;2023-11-22T15:09:54;100703.97;;;5.90;100.00
58775;BME280;44545;47.480;19.024;2023-11-22T15:12:56;100697.66;;;5.86;100.00
58775;BME280;44545;47.480;19.024;2023-11-22T15:15:59;100704.69;;;5.77;100.00
58775;BME280;44545;47.480;19.024;2023-11-22T15:19:02;100708.50;;;5.70;100.00
58775;BME280;44545;47.480;19.024;2023-11-22T15:22:04;100712.88;;;5.71;100.00
58775;BME280;44545;47.480;19.024;2023-11-22T15:25:08;100708.50;;;5.70;100.00
58775;BME280;44545;47.480;19.024;2023-11-22T15:28:12;100711.37;;;5.63;100.00
58775;BME280;44545;47.480;19.024;2023-11-22T15:31:18;100725.41;;;5.55;100.00
58775;BME280;44545;47.480;19.024;2023-11-22T15:34:21;100723.09;;;5.48;100.00
58775;BME280;44545;47.480;19.024;2023-11-22T15:37:24;100719.72;;;5.49;100.00
58775;BME280;44545;47.480;19.024;2023-11-22T15:40:26;100727.91;;;5.43;100.00
58775;BME280;44545;47.480;19.024;2023-11-22T15:43:29;100739.56;;;5.38;100.00
58775;BME280;44545;47.480;19.024;2023-11-22T15:46:31;100741.25;;;5.37;100.00
58775;BME280;44545;47.480;19.024;2023-11-22T15:49:35;100741.31;;;5.49;100.00
58775;BME280;44545;47.480;19.024;2023-11-22T15:52:37;100745.78;;;5.40;100.00
58775;BME280;44545;47.480;19.024;2023-11-22T15:55:41;100757.66;;;5.38;100.00
58775;BME280;44545;47.480;19.024;2023-11-22T15:58:44;100760.44;;;5.29;100.00
58775;BME280;44545;47.480;19.024;2023-11-22T16:01:46;100776.22;;;5.22;100.00
58775;BME280;44545;47.480;19.024;2023-11-22T16:04:49;100785.53;;;5.20;100.00
58775;BME280;44545;47.480;19.024;2023-11-22T16:07:52;100791.75;;;5.12;100.00
58775;BME280;44545;47.480;19.024;2023-11-22T16:10:56;100789.00;;;5.20;100.00
58775;BME280;44545;47.480;19.024;2023-11-22T16:13:58;100794.31;;;5.22;100.00
58775;BME280;44545;47.480;19.024;2023-11-22T16:17:01;100804.88;;;5.35;100.00
58775;BME280;44545;47.480;19.024;2023-11-22T16:20:07;100811.28;;;5.51;100.00
58775;BME280;44545;47.480;19.024;2023-11-22T16:23:16;100809.78;;;5.32;100.00
58775;BME280;44545;47.480;19.024;2023-11-22T16:26:18;100811.47;;;5.32;100.00
58775;BME280;44545;47.480;19.024;2023-11-22T16:29:21;100805.81;;;5.15;100.00
58775;BME280;44545;47.480;19.024;2023-11-22T16:32:24;100818.09;;;5.08;100.00
58775;BME280;44545;47.480;19.024;2023-11-22T16:35:26;100835.31;;;5.07;100.00
58775;BME280;44545;47.480;19.024;2023-11-22T16:38:29;100828.59;;;4.99;100.00
58775;BME280;44545;47.480;19.024;2023-11-22T16:41:31;100836.72;;;5.04;100.00
58775;BME280;44545;47.480;19.024;2023-11-22T16:44:33;100838.53;;;5.15;100.00
